createdAt,value
2023-04-22T00:00:29.542Z,76.51
2023-04-22T00:01:29.505Z,76.71
2023-04-22T00:02:29.618Z,77.12
2023-04-22T00:03:29.720Z,77.32
2023-04-22T00:04:29.749Z,77.32
2023-04-22T00:05:29.530Z,77.22
2023-04-22T00:06:29.458Z,77.25
2023-04-22T00:07:29.428Z,77.56
2023-04-22T00:08:29.427Z,77.36
2023-04-22T00:09:29.434Z,77.56
2023-04-22T00:10:29.406Z,77.97
2023-04-22T00:11:29.400Z,78.27
2023-04-22T00:12:29.406Z,78.27
2023-04-22T00:13:29.381Z,78.27
2023-04-22T00:14:29.368Z,78.47
2023-04-22T00:15:29.382Z,78.67
2023-04-22T00:16:29.402Z,78.67
2023-04-22T00:17:29.446Z,78.88
2023-04-22T00:18:29.325Z,78.98
2023-04-22T00:19:29.321Z,79.08
2023-04-22T00:20:29.309Z,79.08
2023-04-22T00:21:29.281Z,79.08
2023-04-22T00:22:29.317Z,78.98
2023-04-22T00:23:29.264Z,78.98
2023-04-22T00:24:29.287Z,79.18
2023-04-22T00:25:29.257Z,79.28
2023-04-22T00:26:29.233Z,79.63
2023-04-22T00:27:29.243Z,79.63
2023-04-22T00:28:29.224Z,79.83
2023-04-22T00:29:29.209Z,79.72
2023-04-22T00:30:29.201Z,79.83
2023-04-22T00:31:29.238Z,79.93
2023-04-22T00:32:29.203Z,80.03
2023-04-22T00:33:29.166Z,79.93
2023-04-22T00:34:29.168Z,80.13
2023-04-22T00:35:29.149Z,80.13
2023-04-22T00:36:29.126Z,80.33
2023-04-22T00:37:29.113Z,80.13
2023-04-22T00:38:29.139Z,80.03
2023-04-22T00:39:29.091Z,80.03
2023-04-22T00:40:29.112Z,79.72
2023-04-22T00:41:29.094Z,79.63
2023-04-22T00:42:29.069Z,79.63
2023-04-22T00:43:29.054Z,79.63
2023-04-22T00:44:29.054Z,79.52
2023-04-22T00:45:29.072Z,79.42
2023-04-22T00:46:29.077Z,79.42
2023-04-22T00:47:29.039Z,79.42
2023-04-22T00:48:29.146Z,79.22
2023-04-22T00:49:28.985Z,79.42
2023-04-22T00:50:28.977Z,79.63
2023-04-22T00:51:28.993Z,79.72
2023-04-22T00:52:28.961Z,80.07
2023-04-22T00:53:28.950Z,80.07
2023-04-22T00:54:28.953Z,80.13
2023-04-22T00:55:28.930Z,80.24
2023-04-22T00:56:28.927Z,80.24
2023-04-22T00:57:28.907Z,80.47
2023-04-22T00:58:28.904Z,80.58
2023-04-22T00:59:28.882Z,80.68
2023-04-22T01:00:28.945Z,80.68
2023-04-22T01:01:28.888Z,80.68
2023-04-22T01:02:29.018Z,80.58
2023-04-22T01:03:29.046Z,80.68
2023-04-22T01:04:28.903Z,80.68
2023-04-22T01:05:28.828Z,80.68
2023-04-22T01:06:28.811Z,80.88
2023-04-22T01:07:28.798Z,80.98
2023-04-22T01:08:28.807Z,81.09
2023-04-22T01:09:28.810Z,81.09
2023-04-22T01:10:28.770Z,81.02
2023-04-22T01:11:28.751Z,80.98
2023-04-22T01:12:28.770Z,80.78
2023-04-22T01:13:28.747Z,80.78
2023-04-22T01:14:28.732Z,80.82
2023-04-22T01:15:28.738Z,80.82
2023-04-22T01:16:28.742Z,80.82
2023-04-22T01:17:28.706Z,80.92
2023-04-22T01:18:28.685Z,81.12
2023-04-22T01:19:28.692Z,81.23
2023-04-22T01:20:28.678Z,81.33
2023-04-22T01:21:28.694Z,81.33
2023-04-22T01:22:28.643Z,81.33
2023-04-22T01:23:28.642Z,81.43
2023-04-22T01:24:28.639Z,81.53
2023-04-22T01:25:28.636Z,81.43
2023-04-22T01:26:28.619Z,81.53
2023-04-22T01:27:28.625Z,81.63
2023-04-22T01:28:28.604Z,81.63
2023-04-22T01:29:28.596Z,81.63
2023-04-22T01:30:28.588Z,81.73
2023-04-22T01:31:28.620Z,82.14
2023-04-22T01:32:28.750Z,82.04
2023-04-22T01:33:28.543Z,82.24
2023-04-22T01:34:28.541Z,82.45
2023-04-22T01:35:28.561Z,82.34
2023-04-22T01:36:28.511Z,82.34
2023-04-22T01:37:28.486Z,82.34
2023-04-22T01:38:28.490Z,82.24
2023-04-22T01:39:28.491Z,82.24
2023-04-22T01:40:28.483Z,82.24
2023-04-22T01:41:28.461Z,82.34
2023-04-22T01:42:28.448Z,82.59
2023-04-22T01:43:28.438Z,82.68
2023-04-22T01:44:28.425Z,82.48
2023-04-22T01:45:28.407Z,82.48
2023-04-22T01:46:28.525Z,82.48
2023-04-22T01:47:28.395Z,82.48
2023-04-22T01:48:28.383Z,82.59
2023-04-22T01:49:28.393Z,82.79
2023-04-22T01:50:28.360Z,82.79
2023-04-22T01:51:28.334Z,82.79
2023-04-22T01:52:28.334Z,82.79
2023-04-22T01:53:28.319Z,82.59
2023-04-22T01:54:28.321Z,82.68
2023-04-22T01:55:28.325Z,82.68
2023-04-22T01:56:28.308Z,82.79
2023-04-22T01:57:28.275Z,82.89
2023-04-22T01:58:28.268Z,82.99
2023-04-22T01:59:28.276Z,83.09
2023-04-22T02:00:28.258Z,83.20
2023-04-22T02:01:28.288Z,83.20
2023-04-22T02:02:28.320Z,83.29
2023-04-22T02:03:28.284Z,83.40
2023-04-22T02:04:28.238Z,83.60
2023-04-22T02:05:28.205Z,83.70
2023-04-22T02:06:28.200Z,83.81
2023-04-22T02:07:28.176Z,83.81
2023-04-22T02:08:28.179Z,83.95
2023-04-22T02:09:28.149Z,84.01
2023-04-22T02:10:28.164Z,84.05
2023-04-22T02:11:28.141Z,84.15
2023-04-22T02:12:28.125Z,84.25
2023-04-22T02:13:28.126Z,84.15
2023-04-22T02:14:28.108Z,84.25
2023-04-22T02:15:28.095Z,84.35
2023-04-22T02:16:28.122Z,84.35
2023-04-22T02:17:28.067Z,84.35
2023-04-22T02:18:28.067Z,84.35
2023-04-22T02:19:28.077Z,84.45
2023-04-22T02:20:28.018Z,84.45
2023-04-22T02:21:28.018Z,84.66
2023-04-22T02:22:28.002Z,84.86
2023-04-22T02:23:27.999Z,84.66
2023-04-22T02:24:28.008Z,84.66
2023-04-22T02:25:27.970Z,84.86
2023-04-22T02:26:27.976Z,84.97
2023-04-22T02:27:27.960Z,84.97
2023-04-22T02:28:27.951Z,84.90
2023-04-22T02:29:27.953Z,84.86
2023-04-22T02:30:27.938Z,85.00
2023-04-22T02:31:27.933Z,85.00
2023-04-22T02:32:28.012Z,84.90
2023-04-22T02:33:27.896Z,85.00
2023-04-22T02:34:27.873Z,85.11
2023-04-22T02:35:27.879Z,85.21
2023-04-22T02:36:27.859Z,85.41
2023-04-22T02:37:27.844Z,85.41
2023-04-22T02:38:27.830Z,85.41
2023-04-22T02:39:27.822Z,85.51
2023-04-22T02:40:27.831Z,85.51
2023-04-22T02:41:27.805Z,85.51
2023-04-22T02:42:27.800Z,85.41
2023-04-22T02:43:27.805Z,85.51
2023-04-22T02:44:27.781Z,85.61
2023-04-22T02:45:27.752Z,85.72
2023-04-22T02:46:27.892Z,85.72
2023-04-22T02:47:27.798Z,85.82
2023-04-22T02:48:27.732Z,85.72
2023-04-22T02:49:27.732Z,85.72
2023-04-22T02:50:27.734Z,85.86
2023-04-22T02:51:27.701Z,86.06
2023-04-22T02:52:27.720Z,86.06
2023-04-22T02:53:27.688Z,86.16
2023-04-22T02:54:27.676Z,86.27
2023-04-22T02:55:27.661Z,86.27
2023-04-22T02:56:27.655Z,86.27
2023-04-22T02:57:27.640Z,86.37
2023-04-22T02:58:27.637Z,86.37
2023-04-22T02:59:27.618Z,86.37
2023-04-22T03:00:27.651Z,86.47
2023-04-22T03:01:27.682Z,86.68
2023-04-22T03:02:27.696Z,86.77
2023-04-22T03:03:27.894Z,86.88
2023-04-22T03:04:27.711Z,87.08
2023-04-22T03:05:27.561Z,87.18
2023-04-22T03:06:27.549Z,87.29
2023-04-22T03:07:27.543Z,87.38
2023-04-22T03:08:27.550Z,87.49
2023-04-22T03:09:27.515Z,87.59
2023-04-22T03:10:27.499Z,87.90
2023-04-22T03:11:27.494Z,88.00
2023-04-22T03:12:27.487Z,88.00
2023-04-22T03:13:27.478Z,88.10
2023-04-22T03:14:27.455Z,88.34
2023-04-22T03:15:27.440Z,88.65
2023-04-22T03:16:27.483Z,88.85
2023-04-22T03:17:27.452Z,88.96
2023-04-22T03:18:27.429Z,89.16
2023-04-22T03:19:27.394Z,89.36
2023-04-22T03:20:27.391Z,89.26
2023-04-22T03:21:27.382Z,89.16
2023-04-22T03:22:27.372Z,89.26
2023-04-22T03:23:27.350Z,89.47
2023-04-22T03:24:27.364Z,89.36
2023-04-22T03:25:27.328Z,89.47
2023-04-22T03:26:27.346Z,89.36
2023-04-22T03:27:27.343Z,89.47
2023-04-22T03:28:27.313Z,89.47
2023-04-22T03:29:27.313Z,89.47
2023-04-22T03:30:27.284Z,89.47
2023-04-22T03:31:27.342Z,89.36
2023-04-22T03:32:27.273Z,89.36
2023-04-22T03:33:27.244Z,89.47
2023-04-22T03:34:27.252Z,89.47
2023-04-22T03:35:27.260Z,89.57
2023-04-22T03:36:27.220Z,89.47
2023-04-22T03:37:27.215Z,89.47
2023-04-22T03:38:27.296Z,89.57
2023-04-22T03:39:27.199Z,89.77
2023-04-22T03:40:27.188Z,89.77
2023-04-22T03:41:27.156Z,89.97
2023-04-22T03:42:27.166Z,89.87
2023-04-22T03:43:27.167Z,89.97
2023-04-22T03:44:27.132Z,90.08
2023-04-22T03:45:27.158Z,90.08
2023-04-22T03:46:27.266Z,90.12
2023-04-22T03:47:27.190Z,90.01
2023-04-22T03:48:27.113Z,90.01
2023-04-22T03:49:27.078Z,90.01
2023-04-22T03:50:27.077Z,90.22
2023-04-22T03:51:27.092Z,90.53
2023-04-22T03:52:27.072Z,90.63
2023-04-22T03:53:27.068Z,90.73
2023-04-22T03:54:27.155Z,90.53
2023-04-22T03:55:27.045Z,90.53
2023-04-22T03:56:27.024Z,90.42
2023-04-22T03:57:27.122Z,90.42
2023-04-22T03:58:27.364Z,90.42
2023-04-22T03:59:27.013Z,90.42
2023-04-22T04:00:26.962Z,90.53
2023-04-22T04:01:27.059Z,90.42
2023-04-22T04:02:27.109Z,90.42
2023-04-22T04:03:30.276Z,90.63
2023-04-22T04:04:27.102Z,90.63
2023-04-22T04:05:27.127Z,90.53
2023-04-22T04:06:26.899Z,90.57
2023-04-22T04:07:26.931Z,90.57
2023-04-22T04:08:26.917Z,90.47
2023-04-22T04:09:26.880Z,90.36
2023-04-22T04:10:26.846Z,90.47
2023-04-22T04:11:26.854Z,90.67
2023-04-22T04:12:26.837Z,90.77
2023-04-22T04:13:26.824Z,90.88
2023-04-22T04:14:26.830Z,90.98
2023-04-22T04:15:26.813Z,90.98
2023-04-22T04:16:26.858Z,90.98
2023-04-22T04:17:26.838Z,90.88
2023-04-22T04:18:26.792Z,90.88
2023-04-22T04:19:26.763Z,90.88
2023-04-22T04:20:26.754Z,90.88
2023-04-22T04:21:26.773Z,90.88
2023-04-22T04:22:26.742Z,90.77
2023-04-22T04:23:26.723Z,90.77
2023-04-22T04:24:26.705Z,90.77
2023-04-22T04:25:26.726Z,90.77
2023-04-22T04:26:26.695Z,90.67
2023-04-22T04:27:26.700Z,90.61
2023-04-22T04:28:26.700Z,90.71
2023-04-22T04:29:26.651Z,90.81
2023-04-22T04:30:26.645Z,90.81
2023-04-22T04:31:26.730Z,90.81
2023-04-22T04:32:26.726Z,90.92
2023-04-22T04:33:26.628Z,91.02
2023-04-22T04:34:26.605Z,91.02
2023-04-22T04:35:26.597Z,91.12
2023-04-22T04:36:26.581Z,91.12
2023-04-22T04:37:26.593Z,91.12
2023-04-22T04:38:26.581Z,91.12
2023-04-22T04:39:26.561Z,91.12
2023-04-22T04:40:26.542Z,91.02
2023-04-22T04:41:26.536Z,91.02
2023-04-22T04:42:26.505Z,91.12
2023-04-22T04:43:26.537Z,91.02
2023-04-22T04:44:26.482Z,91.02
2023-04-22T04:45:26.530Z,90.92
2023-04-22T04:46:26.521Z,90.92
2023-04-22T04:47:26.502Z,90.92
2023-04-22T04:48:26.446Z,90.92
2023-04-22T04:49:26.446Z,91.12
2023-04-22T04:50:26.442Z,91.12
2023-04-22T04:51:26.423Z,91.02
2023-04-22T04:52:26.398Z,91.02
2023-04-22T04:53:26.404Z,91.12
2023-04-22T04:54:26.386Z,91.33
2023-04-22T04:55:26.394Z,91.33
2023-04-22T04:56:26.374Z,91.22
2023-04-22T04:57:26.365Z,91.43
2023-04-22T04:58:26.349Z,91.43
2023-04-22T04:59:26.346Z,91.53
2023-04-22T05:00:26.334Z,91.43
2023-04-22T05:01:26.351Z,91.43
2023-04-22T05:02:26.515Z,91.22
2023-04-22T05:03:26.458Z,91.12
2023-04-22T05:04:26.727Z,91.12
2023-04-22T05:05:26.300Z,91.22
2023-04-22T05:06:26.294Z,91.33
2023-04-22T05:07:26.260Z,91.33
2023-04-22T05:08:26.253Z,91.22
2023-04-22T05:09:26.459Z,91.22
2023-04-22T05:10:26.213Z,91.18
2023-04-22T05:11:26.228Z,90.98
2023-04-22T05:12:26.201Z,90.88
2023-04-22T05:13:26.191Z,90.77
2023-04-22T05:14:26.191Z,90.67
2023-04-22T05:15:26.168Z,90.57
2023-04-22T05:16:26.180Z,90.47
2023-04-22T05:17:26.186Z,90.36
2023-04-22T05:18:26.133Z,90.36
2023-04-22T05:19:26.122Z,90.36
2023-04-22T05:20:26.136Z,90.36
2023-04-22T05:21:26.124Z,90.47
2023-04-22T05:22:26.095Z,90.47
2023-04-22T05:23:26.090Z,90.47
2023-04-22T05:24:26.076Z,90.47
2023-04-22T05:25:26.069Z,90.26
2023-04-22T05:26:26.049Z,90.16
2023-04-22T05:27:26.037Z,90.16
2023-04-22T05:28:26.721Z,90.16
2023-04-22T05:29:26.744Z,90.16
2023-04-22T05:30:26.022Z,90.16
2023-04-22T05:31:26.041Z,90.16
2023-04-22T05:32:26.053Z,90.06
2023-04-22T05:33:25.990Z,89.96
2023-04-22T05:34:25.963Z,90.06
2023-04-22T05:35:25.991Z,89.96
2023-04-22T05:36:26.693Z,89.96
2023-04-22T05:37:25.950Z,90.06
2023-04-22T05:38:25.951Z,90.06
2023-04-22T05:39:25.918Z,89.96
2023-04-22T05:40:25.976Z,90.06
2023-04-22T05:41:25.892Z,89.86
2023-04-22T05:42:25.900Z,89.81
2023-04-22T05:43:25.888Z,89.81
2023-04-22T05:44:25.872Z,89.71
2023-04-22T05:45:25.838Z,89.61
2023-04-22T05:46:25.845Z,89.61
2023-04-22T05:47:25.892Z,89.51
2023-04-22T05:48:25.814Z,89.51
2023-04-22T05:49:25.805Z,89.40
2023-04-22T05:50:25.812Z,89.40
2023-04-22T05:51:25.799Z,89.30
2023-04-22T05:52:25.779Z,89.40
2023-04-22T05:53:25.771Z,89.30
2023-04-22T05:54:25.790Z,89.20
2023-04-22T05:55:25.762Z,89.10
2023-04-22T05:56:25.732Z,89.20
2023-04-22T05:57:25.735Z,89.20
2023-04-22T05:58:25.724Z,89.10
2023-04-22T05:59:25.717Z,89.06
2023-04-22T06:00:25.698Z,88.85
2023-04-22T06:01:25.674Z,88.75
2023-04-22T06:02:25.813Z,88.65
2023-04-22T06:03:25.863Z,88.45
2023-04-22T06:04:25.951Z,88.34
2023-04-22T06:05:25.717Z,88.34
2023-04-22T06:06:25.723Z,88.24
2023-04-22T06:07:25.635Z,88.24
2023-04-22T06:08:25.718Z,88.24
2023-04-22T06:09:25.613Z,88.10
2023-04-22T06:10:26.310Z,88.10
2023-04-22T06:11:25.617Z,88.00
2023-04-22T06:12:26.587Z,87.79
2023-04-22T06:13:25.555Z,87.69
2023-04-22T06:14:26.755Z,87.59
2023-04-22T06:15:25.535Z,87.49
2023-04-22T06:16:26.403Z,87.38
2023-04-22T06:17:25.559Z,87.35
2023-04-22T06:18:28.248Z,87.24
2023-04-22T06:19:25.498Z,87.14
2023-04-22T06:20:25.506Z,87.14
2023-04-22T06:21:25.488Z,86.94
2023-04-22T06:22:25.447Z,87.04
2023-04-22T06:23:25.435Z,86.90
2023-04-22T06:24:25.428Z,86.59
2023-04-22T06:25:25.433Z,86.49
2023-04-22T06:26:25.429Z,86.29
2023-04-22T06:27:25.392Z,86.29
2023-04-22T06:28:25.394Z,86.19
2023-04-22T06:29:25.375Z,86.08
2023-04-22T06:30:25.374Z,85.78
2023-04-22T06:31:25.403Z,85.47
2023-04-22T06:32:25.352Z,85.37
2023-04-22T06:33:25.336Z,85.23
2023-04-22T06:34:25.327Z,85.23
2023-04-22T06:35:25.342Z,84.72
2023-04-22T06:36:25.316Z,84.82
2023-04-22T06:37:25.286Z,84.52
2023-04-22T06:38:25.304Z,84.31
2023-04-22T06:39:25.278Z,84.11
2023-04-22T06:40:25.244Z,84.11
2023-04-22T06:41:25.266Z,84.11
2023-04-22T06:42:25.234Z,83.81
2023-04-22T06:43:25.231Z,83.81
2023-04-22T06:44:25.282Z,83.67
2023-04-22T06:45:25.212Z,83.46
2023-04-22T06:46:25.195Z,83.36
2023-04-22T06:47:25.226Z,83.36
2023-04-22T06:48:25.188Z,83.46
2023-04-22T06:49:25.181Z,83.36
2023-04-22T06:50:25.166Z,83.15
2023-04-22T06:51:25.146Z,83.15
2023-04-22T06:52:25.125Z,83.26
2023-04-22T06:53:25.121Z,83.12
2023-04-22T06:54:25.109Z,82.92
2023-04-22T06:55:25.119Z,82.81
2023-04-22T06:56:25.103Z,82.51
2023-04-22T06:57:25.077Z,82.61
2023-04-22T06:58:25.064Z,82.51
2023-04-22T06:59:25.084Z,82.61
2023-04-22T07:00:25.044Z,82.61
2023-04-22T07:01:25.072Z,82.40
2023-04-22T07:02:25.081Z,82.17
2023-04-22T07:03:25.171Z,82.26
2023-04-22T07:04:25.037Z,81.96
2023-04-22T07:05:24.998Z,81.76
2023-04-22T07:06:24.998Z,81.45
2023-04-22T07:07:24.981Z,81.15
2023-04-22T07:08:24.949Z,81.01
2023-04-22T07:09:24.954Z,80.80
2023-04-22T07:10:24.931Z,80.60
2023-04-22T07:11:24.929Z,80.30
2023-04-22T07:12:24.945Z,80.40
2023-04-22T07:13:24.927Z,80.30
2023-04-22T07:14:24.891Z,80.40
2023-04-22T07:15:24.880Z,80.60
2023-04-22T07:16:24.900Z,80.40
2023-04-22T07:17:24.889Z,80.06
2023-04-22T07:18:24.861Z,79.96
2023-04-22T07:19:24.845Z,79.85
2023-04-22T07:20:24.831Z,79.55
2023-04-22T07:21:24.809Z,79.25
2023-04-22T07:22:24.815Z,78.84
2023-04-22T07:23:24.799Z,78.64
2023-04-22T07:24:24.788Z,78.64
2023-04-22T07:25:24.789Z,78.70
2023-04-22T07:26:24.764Z,78.80
2023-04-22T07:27:24.770Z,78.91
2023-04-22T07:28:24.733Z,79.11
2023-04-22T07:29:24.721Z,79.72
2023-04-22T07:30:24.827Z,79.78
2023-04-22T07:31:24.728Z,79.47
2023-04-22T07:32:24.850Z,79.58
2023-04-22T07:33:24.690Z,78.77
2023-04-22T07:34:24.689Z,78.53
2023-04-22T07:35:24.667Z,78.42
2023-04-22T07:36:24.652Z,78.42
2023-04-22T07:37:24.658Z,77.51
2023-04-22T07:38:24.632Z,77.31
2023-04-22T07:39:24.648Z,77.41
2023-04-22T07:40:24.654Z,77.68
2023-04-22T07:41:24.605Z,77.28
2023-04-22T07:42:24.574Z,77.48
2023-04-22T07:43:24.569Z,76.77
2023-04-22T07:44:24.572Z,77.14
2023-04-22T07:45:24.570Z,77.14
2023-04-22T07:46:24.597Z,76.93
2023-04-22T07:47:24.556Z,76.83
2023-04-22T07:48:24.516Z,77.03
2023-04-22T07:49:24.527Z,76.83
2023-04-22T07:50:24.518Z,76.29
2023-04-22T07:51:24.523Z,76.09
2023-04-22T07:52:24.497Z,75.38
2023-04-22T07:53:24.489Z,75.28
2023-04-22T07:54:24.462Z,75.48
2023-04-22T07:55:24.468Z,75.45
2023-04-22T07:56:24.448Z,75.55
2023-04-22T07:57:24.432Z,74.74
2023-04-22T07:58:24.436Z,74.74
2023-04-22T07:59:24.418Z,74.19
2023-04-22T08:00:24.415Z,74.10
2023-04-22T08:01:24.451Z,74.10
2023-04-22T08:02:24.615Z,73.90
2023-04-22T08:03:24.626Z,73.69
2023-04-22T08:04:24.649Z,73.39
2023-04-22T08:05:24.350Z,73.75
2023-04-22T08:06:24.336Z,73.66
2023-04-22T08:08:24.344Z,72.44
2023-04-22T08:09:24.302Z,72.75
2023-04-22T08:10:24.312Z,72.64
2023-04-22T08:11:24.290Z,73.46
2023-04-22T08:12:24.307Z,72.75
2023-04-22T08:13:24.247Z,72.64
2023-04-22T08:14:24.254Z,72.64
2023-04-22T08:15:24.242Z,72.55
2023-04-22T08:16:24.314Z,72.55
2023-04-22T08:17:24.240Z,72.64
2023-04-22T08:18:24.238Z,73.15
2023-04-22T08:19:24.204Z,72.95
2023-04-22T08:20:24.229Z,72.55
2023-04-22T08:21:24.194Z,73.05
2023-04-22T08:22:24.198Z,73.25
2023-04-22T08:23:24.157Z,73.15
2023-04-22T08:24:24.152Z,73.05
2023-04-22T08:25:24.121Z,73.15
2023-04-22T08:26:24.121Z,73.15
2023-04-22T08:27:24.112Z,73.35
2023-04-22T08:28:24.115Z,72.85
2023-04-22T08:29:24.080Z,72.64
2023-04-22T08:30:24.075Z,72.95
2023-04-22T08:31:24.096Z,72.55
2023-04-22T08:32:24.086Z,72.75
2023-04-22T08:33:26.524Z,73.05
2023-04-22T08:34:24.045Z,73.25
2023-04-22T08:35:24.024Z,73.25
2023-04-22T08:36:24.011Z,73.46
2023-04-22T08:37:24.000Z,73.55
2023-04-22T08:38:23.999Z,73.35
2023-04-22T08:39:23.995Z,73.25
2023-04-22T08:40:23.996Z,73.66
2023-04-22T08:41:23.966Z,73.86
2023-04-22T08:42:23.980Z,73.96
2023-04-22T08:43:23.946Z,73.66
2023-04-22T08:44:23.936Z,73.15
2023-04-22T08:45:23.919Z,73.46
2023-04-22T08:46:23.964Z,73.15
2023-04-22T08:47:23.948Z,72.95
2023-04-22T08:48:23.886Z,73.15
2023-04-22T08:49:23.870Z,72.95
2023-04-22T08:50:23.879Z,72.75
2023-04-22T08:51:23.857Z,73.15
2023-04-22T08:52:23.854Z,72.71
2023-04-22T08:53:24.888Z,72.21
2023-04-22T08:54:23.830Z,72.00
2023-04-22T08:55:23.823Z,72.11
2023-04-22T08:56:23.808Z,72.51
2023-04-22T08:57:23.807Z,72.51
2023-04-22T08:58:23.810Z,72.31
2023-04-22T08:59:23.798Z,73.42
2023-04-22T09:00:23.775Z,72.88
2023-04-22T09:01:23.756Z,72.58
2023-04-22T09:02:23.788Z,72.58
2023-04-22T09:03:23.815Z,72.58
2023-04-22T09:04:23.825Z,72.34
2023-04-22T09:05:25.174Z,72.34
2023-04-22T09:06:23.737Z,71.73
2023-04-22T09:07:23.684Z,71.23
2023-04-22T09:08:23.668Z,71.00
2023-04-22T09:09:23.661Z,71.20
2023-04-22T09:10:23.656Z,71.00
2023-04-22T09:11:23.665Z,70.89
2023-04-22T09:12:23.647Z,70.56
2023-04-22T09:13:23.623Z,70.56
2023-04-22T09:14:23.608Z,70.12
2023-04-22T09:15:23.587Z,69.62
2023-04-22T09:16:23.660Z,69.72
2023-04-22T09:17:23.609Z,68.78
2023-04-22T09:18:23.556Z,67.77
2023-04-22T09:19:23.563Z,68.18
2023-04-22T09:20:23.546Z,68.15
2023-04-22T09:21:23.547Z,68.04
2023-04-22T09:22:23.548Z,67.51
2023-04-22T09:23:23.510Z,67.61
2023-04-22T09:24:23.504Z,67.21
2023-04-22T09:25:23.497Z,66.57
2023-04-22T09:26:23.499Z,66.77
2023-04-22T09:27:23.465Z,66.37
2023-04-22T09:28:23.481Z,65.77
2023-04-22T09:29:23.452Z,64.93
2023-04-22T09:30:23.436Z,64.33
2023-04-22T09:31:23.467Z,64.03
2023-04-22T09:32:23.470Z,64.03
2023-04-22T09:33:23.414Z,64.53
2023-04-22T09:34:23.398Z,64.00
2023-04-22T09:35:23.374Z,63.39
2023-04-22T09:36:23.367Z,63.70
2023-04-22T09:37:23.362Z,63.29
2023-04-22T09:38:23.352Z,63.59
2023-04-22T09:39:23.346Z,63.79
2023-04-22T09:40:23.340Z,63.49
2023-04-22T09:41:23.317Z,62.89
2023-04-22T09:42:23.310Z,62.69
2023-04-22T09:43:23.300Z,62.79
2023-04-22T09:44:23.320Z,63.29
2023-04-22T09:45:23.270Z,63.59
2023-04-22T09:46:23.463Z,63.59
2023-04-22T09:47:23.275Z,63.49
2023-04-22T09:48:23.250Z,63.36
2023-04-22T09:49:23.263Z,63.17
2023-04-22T09:50:23.236Z,63.17
2023-04-22T09:51:23.214Z,62.86
2023-04-22T09:52:23.203Z,62.46
2023-04-22T09:53:23.189Z,62.16
2023-04-22T09:54:23.171Z,61.93
2023-04-22T09:55:23.189Z,62.13
2023-04-22T09:56:23.160Z,61.93
2023-04-22T09:57:23.147Z,62.00
2023-04-22T09:58:23.147Z,61.80
2023-04-22T09:59:23.134Z,62.20
2023-04-22T10:00:23.115Z,61.97
2023-04-22T10:01:23.133Z,61.17
2023-04-22T10:02:23.134Z,60.77
2023-04-22T10:03:23.146Z,60.03
2023-04-22T10:04:23.117Z,60.33
2023-04-22T10:05:23.055Z,61.04
2023-04-22T10:06:23.070Z,60.64
2023-04-22T10:07:23.044Z,60.84
2023-04-22T10:08:23.214Z,60.44
2023-04-22T10:09:23.023Z,59.83
2023-04-22T10:10:23.017Z,60.44
2023-04-22T10:11:23.016Z,60.51
2023-04-22T10:12:32.791Z,60.11
2023-04-22T10:13:23.972Z,59.70
2023-04-22T10:14:23.214Z,59.50
2023-04-22T10:15:24.954Z,59.70
2023-04-22T10:16:22.980Z,60.11
2023-04-22T10:17:22.945Z,59.61
2023-04-22T10:18:22.934Z,58.81
2023-04-22T10:19:22.915Z,58.40
2023-04-22T10:20:22.905Z,58.61
2023-04-22T10:21:23.830Z,58.87
2023-04-22T10:22:22.890Z,58.98
2023-04-22T10:23:22.858Z,59.48
2023-04-22T10:24:22.868Z,58.98
2023-04-22T10:25:22.848Z,58.45
2023-04-22T10:26:22.835Z,58.55
2023-04-22T10:27:22.832Z,58.65
2023-04-22T10:28:22.823Z,57.55
2023-04-22T10:29:22.818Z,56.65
2023-04-22T10:30:22.795Z,56.55
2023-04-22T10:31:22.821Z,56.12
2023-04-22T10:32:22.792Z,57.02
2023-04-22T10:33:22.770Z,55.82
2023-04-22T10:34:22.762Z,56.02
2023-04-22T10:35:22.752Z,56.42
2023-04-22T10:36:22.720Z,56.62
2023-04-22T10:37:22.739Z,57.39
2023-04-22T10:38:22.714Z,56.89
2023-04-22T10:39:22.695Z,55.49
2023-04-22T10:40:22.763Z,55.59
2023-04-22T10:41:22.690Z,55.77
2023-04-22T10:42:22.674Z,54.57
2023-04-22T10:43:22.654Z,53.67
2023-04-22T10:44:22.657Z,52.27
2023-04-22T10:45:22.626Z,50.74
2023-04-22T10:46:22.726Z,50.45
2023-04-22T10:47:22.596Z,50.95
2023-04-22T10:48:22.607Z,51.15
2023-04-22T10:49:22.631Z,50.54
2023-04-22T10:50:22.580Z,51.04
2023-04-22T10:51:22.548Z,50.82
2023-04-22T10:52:22.555Z,50.82
2023-04-22T10:53:22.553Z,51.02
2023-04-22T10:54:22.788Z,52.00
2023-04-22T10:55:22.506Z,52.09
2023-04-22T10:56:22.525Z,52.49
2023-04-22T10:57:22.523Z,51.79
2023-04-22T10:58:22.503Z,49.68
2023-04-22T10:59:22.482Z,50.87
2023-04-22T11:00:22.486Z,50.87
2023-04-22T11:01:22.457Z,49.57
2023-04-22T11:02:22.508Z,49.85
2023-04-22T11:03:22.720Z,50.05
2023-04-22T11:04:22.654Z,50.02
2023-04-22T11:05:24.632Z,50.23
2023-04-22T11:06:22.495Z,51.00
2023-04-22T11:07:22.421Z,50.80
2023-04-22T11:08:22.386Z,48.61
2023-04-22T11:09:22.381Z,48.01
2023-04-22T11:10:22.364Z,47.39
2023-04-22T11:11:22.369Z,47.69
2023-04-22T11:12:22.334Z,46.99
2023-04-22T11:13:22.342Z,46.59
2023-04-22T11:14:22.328Z,46.08
2023-04-22T11:15:22.323Z,44.98
2023-04-22T11:16:22.774Z,45.87
2023-04-22T11:17:22.319Z,47.37
2023-04-22T11:18:22.302Z,46.47
2023-04-22T11:19:22.278Z,46.27
2023-04-22T11:20:22.273Z,46.08
2023-04-22T11:21:22.274Z,44.28
2023-04-22T11:22:22.231Z,43.68
2023-04-22T11:23:22.241Z,44.08
2023-04-22T11:24:22.252Z,44.18
2023-04-22T11:25:22.196Z,44.08
2023-04-22T11:26:22.232Z,45.55
2023-04-22T11:27:22.179Z,45.06
2023-04-22T11:28:22.196Z,45.26
2023-04-22T11:29:22.168Z,44.84
2023-04-22T11:30:22.166Z,44.44
2023-04-22T11:31:22.173Z,44.44
2023-04-22T11:32:22.183Z,44.34
2023-04-22T11:33:22.140Z,43.74
2023-04-22T11:34:22.130Z,43.82
2023-04-22T11:35:22.119Z,43.72
2023-04-22T11:36:22.096Z,42.03
2023-04-22T11:37:22.083Z,40.44
2023-04-22T11:38:22.087Z,39.45
2023-04-22T11:39:22.080Z,39.75
2023-04-22T11:40:30.906Z,39.84
2023-04-22T11:41:23.055Z,40.14
2023-04-22T11:42:22.030Z,37.86
2023-04-22T11:43:22.025Z,38.06
2023-04-22T11:44:22.015Z,39.13
2023-04-22T11:45:22.008Z,38.56
2023-04-22T11:46:22.560Z,37.64
2023-04-22T11:47:21.993Z,39.03
2023-04-22T11:48:21.964Z,38.93
2023-04-22T11:49:21.981Z,38.64
2023-04-22T11:50:21.958Z,39.92
2023-04-22T11:51:21.930Z,38.93
2023-04-22T11:52:21.920Z,39.13
2023-04-22T11:53:21.929Z,39.53
2023-04-22T11:54:21.898Z,39.03
2023-04-22T11:55:21.882Z,39.43
2023-04-22T11:56:21.870Z,39.31
2023-04-22T11:57:21.879Z,38.92
2023-04-22T11:58:21.886Z,39.01
2023-04-22T11:59:21.851Z,38.54
2023-04-22T12:00:21.848Z,38.54
2023-04-22T12:01:21.843Z,37.86
2023-04-22T12:02:21.892Z,38.26
2023-04-22T12:03:21.906Z,38.95
2023-04-22T12:04:21.914Z,38.73
2023-04-22T12:05:21.808Z,38.34
2023-04-22T12:06:21.775Z,38.34
2023-04-22T12:07:21.774Z,39.83
2023-04-22T12:08:21.739Z,38.93
2023-04-22T12:09:21.744Z,39.03
2023-04-22T12:10:21.752Z,39.33
2023-04-22T12:11:21.722Z,39.23
2023-04-22T12:12:21.716Z,38.34
2023-04-22T12:13:21.692Z,38.14
2023-04-22T12:14:21.694Z,38.93
2023-04-22T12:15:21.702Z,39.21
2023-04-22T12:16:21.709Z,38.34
2023-04-22T12:17:21.698Z,38.93
2023-04-22T12:18:21.633Z,38.43
2023-04-22T12:19:21.655Z,38.54
2023-04-22T12:20:24.115Z,38.64
2023-04-22T12:21:21.640Z,38.54
2023-04-22T12:22:21.610Z,39.11
2023-04-22T12:23:21.591Z,38.93
2023-04-22T12:24:21.582Z,39.01
2023-04-22T12:25:21.580Z,38.58
2023-04-22T12:26:23.652Z,38.79
2023-04-22T12:27:21.581Z,39.81
2023-04-22T12:28:21.545Z,39.81
2023-04-22T12:29:21.532Z,40.90
2023-04-22T12:30:21.511Z,39.51
2023-04-22T12:31:21.716Z,39.21
2023-04-22T12:32:23.098Z,39.11
2023-04-22T12:33:21.505Z,39.11
2023-04-22T12:34:21.473Z,39.29
2023-04-22T12:35:21.472Z,38.79
2023-04-22T12:36:21.454Z,38.98
2023-04-22T12:37:21.443Z,37.18
2023-04-22T12:38:21.440Z,36.06
2023-04-22T12:39:21.432Z,35.70
2023-04-22T12:40:21.440Z,36.71
2023-04-22T12:41:21.417Z,36.69
2023-04-22T12:42:21.393Z,36.25
2023-04-22T12:43:21.397Z,36.79
2023-04-22T12:44:23.151Z,37.91
2023-04-22T12:45:21.377Z,37.93
2023-04-22T12:46:21.449Z,38.54
2023-04-22T12:47:21.353Z,39.06
2023-04-22T12:48:21.344Z,38.88
2023-04-22T12:49:21.329Z,39.09
2023-04-22T12:50:21.306Z,39.19
2023-04-22T12:51:21.320Z,39.31
2023-04-22T12:52:21.296Z,39.61
2023-04-22T12:53:21.276Z,39.90